Time;durP1;ratioP1;P1;durP2;ratioP2;P2;SDS_P1;SDS_P2;PMS_P1;PMS_P2;Temp;Humidity;BMP_temperature;BMP_pressure;BME280_temperature;BME280_humidity;BME280_pressure;Samples;Min_cycle;Max_cycle;Signal;HPM_P1;HPM_P2
2022/08/23 05:02:24;;;;;;;;;;;;;;;11.41;100.00;99545.13;6210497;22;20230;-84
2022/08/23 05:04:50;;;;;;;;;;;;;;;11.27;100.00;99545.78;6306310;22;19918;-84
2022/08/23 05:07:15;;;;;;;;;;;;;;;11.35;100.00;99552.53;6306776;22;19911;-84
2022/08/23 05:09:40;;;;;;;;;;;;;;;11.32;100.00;99552.69;6279399;22;20020;-88
2022/08/23 05:15:16;;;;;;;;;;;;;;;11.48;100.00;99558.06;6179893;23;19916;-85
2022/08/23 05:17:50;;;;;;;;;;;;;;;11.33;100.00;99563.22;6287711;22;19915;-85
2022/08/23 05:20:25;;;;;;;;;;;;;;;11.37;100.00;99562.09;6308205;22;19989;-85
2022/08/23 05:22:51;;;;;;;;;;;;;;;11.42;100.00;99568.06;6308187;22;19915;-84
2022/08/23 05:25:19;;;;;;;;;;;;;;;11.35;100.00;99563.13;6281015;22;20363;-84
2022/08/23 05:27:51;;;;;;;;;;;;;;;11.46;100.00;99563.47;6308126;22;19997;-85
2022/08/23 05:30:34;;;;;;;;;;;;;;;11.37;100.00;99567.41;6305187;22;19955;-86
2022/08/23 05:33:17;;;;;;;;;;;;;;;;;;;;;
2022/08/23 05:36:05;;;;;;;;;;;;;;;11.48;100.00;99571.34;6308178;22;19998;-86
2022/08/23 05:38:52;;;;;;;;;;;;;;;;;;;;;
2022/08/23 05:41:28;;;;;;;;;;;;;;;11.54;100.00;99576.34;6308535;22;19994;-86
2022/08/23 05:44:19;;;;;;;;;;;;;;;11.43;100.00;99575.06;6308521;22;19915;-86
2022/08/23 05:47:00;;;;;;;;;;;;;;;11.49;100.00;99573.03;6306278;22;19918;-86
2022/08/23 05:49:58;;;;;;;;;;;;;;;;;;;;;
2022/08/23 05:52:54;;;;;;;;;;;;;;;11.43;100.00;99575.06;6298155;22;20032;-89
2022/08/23 05:55:37;;;;;;;;;;;;;;;11.64;100.00;99582.91;6307322;22;19911;-91
2022/08/23 05:58:04;;;;;;;;;;;;;;;11.56;100.00;99577.97;6308007;22;19969;-84
2022/08/23 06:00:30;;;;;;;;;;;;;;;11.47;100.00;99588.19;6278606;22;20353;-85
2022/08/23 06:02:57;;;;;;;;;;;;;;;11.56;100.00;99590.38;6307777;22;19919;-84
2022/08/23 06:05:27;;;;;;;;;;;;;;;11.46;100.00;99590.00;6307914;22;20322;-87
2022/08/23 06:07:53;;;;;;;;;;;;;;;11.61;100.00;99596.31;6308187;22;19911;-88
2022/08/23 06:10:20;;;;;;;;;;;;;;;11.51;100.00;99597.72;6308041;22;19921;-87
2022/08/23 06:12:47;;;;;;;;;;;;;;;11.73;100.00;99606.31;6281086;22;19918;-88
2022/08/23 06:15:13;;;;;;;;;;;;;;;11.56;100.00;99607.16;6306121;22;19945;-86
2022/08/23 06:17:44;;;;;;;;;;;;;;;11.68;100.00;99612.78;6280118;22;19915;-88
2022/08/23 06:20:09;;;;;;;;;;;;;;;11.55;100.00;99602.81;6307686;22;19926;-87
2022/08/23 06:22:35;;;;;;;;;;;;;;;11.53;100.00;99619.72;6307476;22;19911;-88
2022/08/23 06:25:03;;;;;;;;;;;;;;;11.61;100.00;99612.25;6307488;22;19911;-89
2022/08/23 06:27:33;;;;;;;;;;;;;;;11.47;100.00;99614.72;6307566;22;19911;-88
2022/08/23 06:29:58;;;;;;;;;;;;;;;11.63;100.00;99616.53;6307417;22;20343;-87
2022/08/23 06:32:33;;;;;;;;;;;;;;;11.51;100.00;99614.50;6305858;22;19989;-87
2022/08/23 06:34:59;;;;;;;;;;;;;;;11.75;100.00;99614.22;6307368;22;20005;-87
2022/08/23 06:37:24;;;;;;;;;;;;;;;11.55;100.00;99616.06;6307973;22;19946;-88
2022/08/23 06:39:49;;;;;;;;;;;;;;;11.60;100.00;99615.84;6307334;22;20272;-88
2022/08/23 06:42:17;;;;;;;;;;;;;;;11.56;100.00;99615.13;6307483;22;19911;-89
2022/08/23 06:44:43;;;;;;;;;;;;;;;11.46;100.00;99608.56;6307327;22;19965;-88
2022/08/23 06:47:08;;;;;;;;;;;;;;;11.61;100.00;99607.78;6304511;22;20326;-87
2022/08/23 06:49:35;;;;;;;;;;;;;;;11.53;100.00;99609.97;6307290;22;19911;-86
2022/08/23 06:52:04;;;;;;;;;;;;;;;11.66;100.00;99609.34;6307340;22;20338;-88
2022/08/23 06:54:30;;;;;;;;;;;;;;;11.51;100.00;99608.34;6280050;22;19919;-87
2022/08/23 07:53:33;;;;;;;;;;;;;;;11.64;100.00;99641.28;6295347;22;20246;-88
2022/08/23 07:56:02;;;;;;;;;;;;;;;11.89;100.00;99642.72;6279386;22;19941;-88
2022/08/23 07:58:28;;;;;;;;;;;;;;;11.73;100.00;99643.47;6306403;22;19910;-88
2022/08/23 08:00:53;;;;;;;;;;;;;;;11.90;100.00;99642.66;6278245;22;20009;-88
2022/08/23 08:03:18;;;;;;;;;;;;;;;11.79;100.00;99637.88;6304887;22;19986;-88
2022/08/23 08:05:44;;;;;;;;;;;;;;;11.82;100.00;99637.72;6304513;22;19919;-88
2022/08/23 08:08:09;;;;;;;;;;;;;;;11.81;100.00;99643.94;6278985;22;19990;-87
2022/08/23 08:10:37;;;;;;;;;;;;;;;11.74;100.00;99639.03;6306788;22;19919;-89
2022/08/23 08:13:02;;;;;;;;;;;;;;;11.80;100.00;99639.56;6279529;22;19911;-87
2022/08/23 08:15:27;;;;;;;;;;;;;;;11.75;100.00;99640.75;6278857;22;19911;-89
2022/08/23 08:17:52;;;;;;;;;;;;;;;11.93;100.00;99641.66;6305916;22;19911;-87
2022/08/23 08:20:19;;;;;;;;;;;;;;;11.82;100.00;99634.19;6276585;22;19938;-88
2022/08/23 08:22:46;;;;;;;;;;;;;;;11.96;100.00;99639.69;6306138;22;19923;-89
2022/08/23 08:25:11;;;;;;;;;;;;;;;11.80;100.00;99641.38;6305612;22;19910;-89
2022/08/23 08:27:37;;;;;;;;;;;;;;;11.98;100.00;99642.25;6306723;22;20123;-89
2022/08/23 08:30:04;;;;;;;;;;;;;;;11.81;100.00;99640.44;6305701;22;20326;-88
2022/08/23 08:32:30;;;;;;;;;;;;;;;11.97;100.00;99643.22;6277068;22;19918;-89
2022/08/23 08:34:55;;;;;;;;;;;;;;;11.81;100.00;99643.94;6276477;22;19915;-93
2022/08/23 08:39:48;;;;;;;;;;;;;;;11.82;100.00;99647.47;6304957;22;19923;-88
2022/08/23 08:42:38;;;;;;;;;;;;;;;;;;;;;
2022/08/23 08:45:13;;;;;;;;;;;;;;;11.87;100.00;99653.41;6306370;22;20002;-89
2022/08/23 08:47:48;;;;;;;;;;;;;;;11.87;100.00;99656.06;6305638;22;20277;-90
2022/08/23 08:50:16;;;;;;;;;;;;;;;11.97;100.00;99653.84;6277417;22;20318;-89
2022/08/23 08:53:05;;;;;;;;;;;;;;;11.85;100.00;99651.75;6307367;22;19915;-92
2022/08/23 08:55:32;;;;;;;;;;;;;;;12.02;100.00;99649.16;6232710;22;20314;-88
2022/08/23 08:58:16;;;;;;;;;;;;;;;11.90;100.00;99642.66;6308439;22;19922;-91
2022/08/23 09:00:42;;;;;;;;;;;;;;;12.07;100.00;99646.25;6306522;22;19934;-89
2022/08/23 09:03:33;;;;;;;;;;;;;;;11.97;100.00;99643.22;6308284;22;19911;-90
2022/08/23 09:06:22;;;;;;;;;;;;;;;11.84;100.00;99640.31;6307397;22;19914;-89
2022/08/23 09:09:35;;;;;;;;;;;;;;;;;;;;;
2022/08/23 09:12:04;;;;;;;;;;;;;;;11.97;100.00;99637.91;6301570;22;19949;-88
2022/08/23 09:14:37;;;;;;;;;;;;;;;12.15;100.00;99634.28;6280963;22;19989;-88
2022/08/23 09:17:02;;;;;;;;;;;;;;;12.01;100.00;99642.09;6281030;22;19910;-88
2022/08/23 09:19:34;;;;;;;;;;;;;;;12.17;100.00;99642.19;6306513;22;19943;-88
2022/08/23 09:22:09;;;;;;;;;;;;;;;12.02;100.00;99646.50;6307509;22;19949;-88
2022/08/23 09:25:05;;;;;;;;;;;;;;;12.02;100.00;99645.66;6307921;22;19911;-88
2022/08/23 09:27:37;;;;;;;;;;;;;;;12.03;100.00;99642.03;6247549;22;20346;-89
2022/08/23 09:30:04;;;;;;;;;;;;;;;11.87;100.00;99639.25;6120840;23;19917;-89
2022/08/23 09:32:37;;;;;;;;;;;;;;;12.04;100.00;99636.66;6121108;23;19923;-88
2022/08/23 09:35:11;;;;;;;;;;;;;;;11.95;100.00;99632.69;6119297;23;19916;-88
2022/08/23 09:37:51;;;;;;;;;;;;;;;12.12;100.00;99626.47;6120509;23;19995;-88
2022/08/23 09:40:24;;;;;;;;;;;;;;;11.96;100.00;99630.88;6120073;23;19913;-88
2022/08/23 09:43:02;;;;;;;;;;;;;;;11.93;100.00;99634.53;6120431;23;20539;-89
2022/08/23 09:45:29;;;;;;;;;;;;;;;12.01;100.00;99634.16;6121146;23;19913;-89
2022/08/23 09:48:07;;;;;;;;;;;;;;;11.85;100.00;99635.84;6121824;23;19924;-88
2022/08/23 09:50:41;;;;;;;;;;;;;;;12.14;100.00;99637.03;6120388;23;19913;-88
2022/08/23 09:53:18;;;;;;;;;;;;;;;11.95;100.00;99624.72;6120574;22;19913;-87
2022/08/23 09:55:57;;;;;;;;;;;;;;;12.08;100.00;99632.91;6145235;23;19909;-88
2022/08/23 09:58:36;;;;;;;;;;;;;;;11.97;100.00;99630.78;6120355;23;19924;-88
2022/08/23 10:01:13;;;;;;;;;;;;;;;11.80;100.00;99628.94;6120248;23;19909;-89
2022/08/23 10:04:01;;;;;;;;;;;;;;;12.05;100.00;99630.41;6119913;23;19937;-87
2022/08/23 10:06:30;;;;;;;;;;;;;;;11.92;100.00;99626.66;6120864;23;19924;-89
2022/08/23 10:08:59;;;;;;;;;;;;;;;12.09;100.00;99623.97;6121163;23;19945;-92
2022/08/23 10:11:44;;;;;;;;;;;;;;;11.95;100.00;99627.38;6122007;23;19970;-88
2022/08/23 10:14:11;;;;;;;;;;;;;;;11.97;100.00;99629.94;6119600;22;19996;-88
2022/08/23 10:17:06;;;;;;;;;;;;;;;11.97;100.00;99629.94;6118438;23;19932;-88
2022/08/23 10:19:33;;;;;;;;;;;;;;;11.85;100.00;99619.91;6118899;23;19917;-88
2022/08/23 10:22:04;;;;;;;;;;;;;;;12.13;100.00;99614.94;6119423;23;20267;-88
2022/08/23 10:24:48;;;;;;;;;;;;;;;11.95;100.00;99626.50;6120335;23;20316;-88
2022/08/23 10:30:29;;;;;;;;;;;;;;;12.08;100.00;99618.78;6121905;23;19970;-89
2022/08/23 10:33:29;;;;;;;;;;;;;;;11.96;100.00;99626.41;6121588;23;20392;-88
2022/08/23 10:36:15;;;;;;;;;;;;;;;12.15;100.00;99615.69;6117713;23;19988;-87
2022/08/23 10:39:09;;;;;;;;;;;;;;;12.07;100.00;99619.72;6119792;23;19944;-88
2022/08/23 10:41:55;;;;;;;;;;;;;;;11.93;100.00;99613.28;6120867;23;19920;-89
2022/08/23 10:44:36;;;;;;;;;;;;;;;12.08;100.00;99611.66;6119982;23;20309;-88
2022/08/23 10:48:10;;;;;;;;;;;;;;;11.92;100.00;99616.06;6119407;22;20253;-88
2022/08/23 10:52:55;;;;;;;;;;;;;;;12.11;100.00;99605.31;6120467;23;20386;-89
2022/08/23 11:03:33;;;;;;;;;;;;;;;12.12;100.00;99591.09;6293888;22;19919;-88
2022/08/23 11:06:59;;;;;;;;;;;;;;;12.06;100.00;99594.97;6151654;23;19912;-88
2022/08/23 11:12:28;;;;;;;;;;;;;;;11.98;100.00;99589.16;6275834;22;19923;-88
2022/08/23 11:19:58;;;;;;;;;;;;;;;12.07;100.00;99586.03;6303556;22;19934;-91
2022/08/23 11:22:29;;;;;;;;;;;;;;;11.95;100.00;99584.88;6304547;22;19917;-90
2022/08/23 11:25:02;;;;;;;;;;;;;;;12.22;100.00;99579.06;6279176;22;19911;-91
2022/08/23 11:28:02;;;;;;;;;;;;;;;;;;;;;
2022/08/23 11:30:31;;;;;;;;;;;;;;;12.11;100.00;99576.97;6307361;22;20303;-91
2022/08/23 11:34:03;;;;;;;;;;;;;;;12.11;100.00;99578.75;6278770;22;19937;-90
2022/08/23 11:36:15;;;;;;;;;;;;;;;12.04;100.00;99572.06;6288981;22;19911;-91
2022/08/23 11:38:48;;;;;;;;;;;;;;;12.27;100.00;99571.72;6306330;22;19915;-90
2022/08/23 11:41:33;;;;;;;;;;;;;;;12.14;100.00;99573.28;6278433;22;19917;-89
2022/08/23 11:44:06;;;;;;;;;;;;;;;12.31;100.00;99575.06;6306360;22;19911;-88
2022/08/23 11:49:26;;;;;;;;;;;;;;;12.27;100.00;99571.72;6272177;22;19919;-89
2022/08/23 11:52:02;;;;;;;;;;;;;;;12.30;100.00;99562.69;6248330;22;19961;-88
2022/08/23 11:54:31;;;;;;;;;;;;;;;12.20;100.00;99572.13;6248910;22;19918;-88
2022/08/23 11:57:15;;;;;;;;;;;;;;;12.32;100.00;99571.47;6249094;22;19918;-88
2022/08/23 12:02:49;;;;;;;;;;;;;;;19.06;100.00;99548.50;6276773;22;20021;-86
2022/08/23 12:05:16;;;;;;;;;;;;;;;18.86;100.00;99544.78;6247627;22;19923;-89
2022/08/23 12:07:55;;;;;;;;;;;;;;;16.15;100.00;99560.53;6248482;22;19915;-87
2022/08/23 12:10:38;;;;;;;;;;;;;;;14.82;100.00;99563.13;6275634;22;19912;-86
2022/08/23 12:16:15;;;;;;;;;;;;;;;13.99;100.00;99558.44;6277516;22;20005;-88
2022/08/23 12:18:53;;;;;;;;;;;;;;;13.71;100.00;99558.41;6279583;22;19918;-88
2022/08/23 12:21:24;;;;;;;;;;;;;;;13.70;100.00;99559.31;6277895;22;19907;-87
2022/08/23 12:24:04;;;;;;;;;;;;;;;13.53;100.00;99555.88;6240841;23;20240;-87
2022/08/23 12:26:58;;;;;;;;;;;;;;;13.45;100.00;99558.13;6216422;23;19920;-85
2022/08/23 12:32:10;;;;;;;;;;;;;;;;;;;;;
2022/08/23 12:34:41;;;;;;;;;;;;;;;13.41;100.00;99554.75;6243478;23;19990;-88
2022/08/23 12:37:21;;;;;;;;;;;;;;;13.31;100.00;99550.91;6219383;23;19912;-86
2022/08/23 12:40:07;;;;;;;;;;;;;;;13.27;100.00;99549.34;6243341;23;19926;-88
2022/08/23 12:42:50;;;;;;;;;;;;;;;13.27;100.00;99552.91;6245177;23;19916;-88
2022/08/23 12:45:19;;;;;;;;;;;;;;;13.20;100.00;99548.84;6216219;23;19919;-86
2022/08/23 12:48:18;;;;;;;;;;;;;;;13.33;100.00;99549.03;6244524;23;19919;-88
2022/08/23 12:53:32;;;;;;;;;;;;;;;13.17;100.00;99549.03;6176423;23;19923;-87
2022/08/23 12:56:00;;;;;;;;;;;;;;;13.21;100.00;99545.25;6243709;23;20316;-86
2022/08/23 12:58:27;;;;;;;;;;;;;;;13.14;100.00;99546.53;6243449;23;19920;-87
2022/08/23 13:01:03;;;;;;;;;;;;;;;13.27;100.00;99544.03;6243311;23;19912;-88
2022/08/23 13:03:43;;;;;;;;;;;;;;;13.10;100.00;99545.03;6243066;23;20213;-87
2022/08/23 13:06:12;;;;;;;;;;;;;;;13.24;100.00;99542.44;6242968;23;19921;-87
2022/08/23 13:08:39;;;;;;;;;;;;;;;13.16;100.00;99547.34;6244716;23;19938;-87
2022/08/23 13:11:06;;;;;;;;;;;;;;;13.32;100.00;99546.44;6245209;23;19966;-86
2022/08/23 13:13:32;;;;;;;;;;;;;;;13.21;100.00;99545.25;6245050;23;19918;-88
2022/08/23 13:15:59;;;;;;;;;;;;;;;13.38;100.00;99551.44;6244901;23;19919;-87
2022/08/23 13:18:27;;;;;;;;;;;;;;;13.27;100.00;99539.59;6242875;23;20271;-88
2022/08/23 13:21:11;;;;;;;;;;;;;;;13.36;100.00;99542.69;6216454;23;19912;-88
2022/08/23 13:23:58;;;;;;;;;;;;;;;13.24;100.00;99542.44;6248129;23;19915;-86
2022/08/23 13:29:35;;;;;;;;;;;;;;;16.99;100.00;99535.91;6230624;23;19912;-89
2022/08/23 13:32:16;;;;;;;;;;;;;;;;;;;;;
2022/08/23 13:34:44;;;;;;;;;;;;;;;13.43;100.00;99541.38;6118347;23;19996;-87
2022/08/23 13:37:15;;;;;;;;;;;;;;;13.15;100.00;99542.94;6120505;23;19920;-86
2022/08/23 13:43:19;;;;;;;;;;;;;;;13.16;100.00;99539.34;6151201;22;19928;-92
2022/08/23 13:46:00;;;;;;;;;;;;;;;12.95;100.00;99545.88;6155632;23;19920;-88
2022/08/23 13:48:31;;;;;;;;;;;;;;;12.86;100.00;99540.16;6182624;23;19987;-89
2022/08/23 13:51:15;;;;;;;;;;;;;;;12.89;100.00;99545.28;6180290;23;19917;-88
2022/08/23 13:53:44;;;;;;;;;;;;;;;12.92;100.00;99543.41;6149816;23;19995;-89
2022/08/23 13:56:09;;;;;;;;;;;;;;;12.86;100.00;99540.16;6148838;23;20024;-88
2022/08/23 13:58:35;;;;;;;;;;;;;;;12.94;100.00;99538.84;6124510;23;19944;-89
2022/08/23 14:01:01;;;;;;;;;;;;;;;12.79;100.00;99543.22;6125167;23;19919;-88
2022/08/23 14:03:27;;;;;;;;;;;;;;;12.90;100.00;99544.31;6125001;23;19936;-89
2022/08/23 14:05:52;;;;;;;;;;;;;;;12.79;100.00;99541.41;6147693;23;20000;-90
2022/08/23 14:08:28;;;;;;;;;;;;;;;12.92;100.00;99548.72;6125631;23;19947;-91
2022/08/23 14:10:53;;;;;;;;;;;;;;;12.86;100.00;99555.22;6150115;23;20287;-88
2022/08/23 14:13:20;;;;;;;;;;;;;;;12.92;100.00;99538.94;6124794;23;20359;-90
2022/08/23 14:15:48;;;;;;;;;;;;;;;12.81;100.00;99536.91;6149588;23;19912;-88
2022/08/23 14:18:33;;;;;;;;;;;;;;;12.97;100.00;99531.56;6124980;23;20348;-88
2022/08/23 14:20:59;;;;;;;;;;;;;;;12.82;100.00;99535.94;6148802;23;19965;-88
2022/08/23 14:26:45;;;;;;;;;;;;;;;12.91;100.00;99531.91;6035280;23;20259;-88
2022/08/23 14:29:10;;;;;;;;;;;;;;;12.82;100.00;99535.09;6021387;23;19914;-90
2022/08/23 14:31:39;;;;;;;;;;;;;;;12.97;100.00;99526.25;6150817;22;19915;-87
2022/08/23 14:34:05;;;;;;;;;;;;;;;12.89;100.00;99524.03;6148983;23;19912;-87
2022/08/23 14:36:30;;;;;;;;;;;;;;;12.99;100.00;99526.16;6150987;23;19913;-89
2022/08/23 14:38:58;;;;;;;;;;;;;;;12.88;100.00;99527.63;6149005;23;19912;-88
2022/08/23 14:41:25;;;;;;;;;;;;;;;13.02;100.00;99529.50;6150617;22;19954;-88
2022/08/23 14:43:55;;;;;;;;;;;;;;;12.92;100.00;99522.13;6124672;23;19935;-90
2022/08/23 14:46:21;;;;;;;;;;;;;;;13.05;100.00;99517.81;6124984;23;19913;-86
2022/08/23 14:48:47;;;;;;;;;;;;;;;12.90;100.00;99520.41;6124581;23;19924;-88
2022/08/23 14:51:21;;;;;;;;;;;;;;;13.11;100.00;99520.13;6122159;23;19917;-87
2022/08/23 14:53:46;;;;;;;;;;;;;;;12.98;100.00;99521.78;6124041;23;20320;-88
2022/08/23 14:56:11;;;;;;;;;;;;;;;13.13;100.00;99526.22;6150626;22;19919;-86
2022/08/23 14:58:39;;;;;;;;;;;;;;;12.99;100.00;99521.69;6124254;23;19916;-89
2022/08/23 15:01:04;;;;;;;;;;;;;;;13.11;100.00;99520.13;6149904;23;19969;-89
2022/08/23 15:03:30;;;;;;;;;;;;;;;13.03;100.00;99525.88;6148603;23;20015;-87
2022/08/23 15:05:56;;;;;;;;;;;;;;;13.10;100.00;99518.44;6119213;23;19924;-86
2022/08/23 15:08:22;;;;;;;;;;;;;;;13.06;100.00;99523.03;6148658;22;19920;-87
2022/08/23 15:10:53;;;;;;;;;;;;;;;13.15;100.00;99519.00;6147217;23;19981;-89
2022/08/23 15:13:21;;;;;;;;;;;;;;;13.14;100.00;99511.97;6150306;23;19922;-88
2022/08/23 15:15:50;;;;;;;;;;;;;;;13.19;100.00;99514.38;6125637;23;20290;-91
2022/08/23 15:18:17;;;;;;;;;;;;;;;13.20;100.00;99516.09;6150528;23;19977;-89
2022/08/23 15:20:44;;;;;;;;;;;;;;;13.13;100.00;99517.38;6148819;23;19916;-89
2022/08/23 15:23:17;;;;;;;;;;;;;;;13.22;100.00;99507.06;6150587;22;19917;-91
2022/08/23 15:26:12;;;;;;;;;;;;;;;13.09;100.00;99508.72;6152710;23;19966;-91
2022/08/23 15:28:37;;;;;;;;;;;;;;;13.08;100.00;99510.53;6156324;23;19962;-88
2022/08/23 15:31:03;;;;;;;;;;;;;;;13.14;100.00;99511.97;6124769;23;19920;-89
2022/08/23 15:33:31;;;;;;;;;;;;;;;13.13;100.00;99512.06;6150551;23;19920;-89
2022/08/23 15:36:00;;;;;;;;;;;;;;;13.11;100.00;99512.13;6127589;23;19917;-93
2022/08/23 15:41:38;;;;;;;;;;;;;;;13.15;100.00;99508.38;6134638;23;20356;-86
2022/08/23 15:53:22;;;;;;;;;;;;;;;12.98;100.00;99505.81;6291733;22;19918;-88
2022/08/23 15:56:08;;;;;;;;;;;;;;;;;;;;;
2022/08/23 15:58:36;;;;;;;;;;;;;;;13.07;100.00;99505.31;6304366;22;19986;-89
2022/08/23 16:01:12;;;;;;;;;;;;;;;13.19;100.00;99495.75;6278392;22;19915;-88
2022/08/23 16:03:42;;;;;;;;;;;;;;;13.07;100.00;99507.97;6278143;22;19911;-91
2022/08/23 16:06:12;;;;;;;;;;;;;;;13.22;100.00;99501.72;6278853;22;19910;-91
2022/08/23 16:08:38;;;;;;;;;;;;;;;13.10;100.00;99502.47;6278455;22;19911;-87
2022/08/23 16:11:09;;;;;;;;;;;;;;;13.22;100.00;99503.53;6304207;22;19917;-90
2022/08/23 16:13:44;;;;;;;;;;;;;;;13.11;100.00;99501.50;6306056;22;20347;-90
2022/08/23 16:16:14;;;;;;;;;;;;;;;13.25;100.00;99506.88;6306157;22;19984;-90
2022/08/23 16:18:40;;;;;;;;;;;;;;;13.14;100.00;99503.97;6279140;22;20254;-91
2022/08/23 16:24:08;;;;;;;;;;;;;;;13.14;100.00;99505.78;6306559;22;19915;-89
2022/08/23 16:26:36;;;;;;;;;;;;;;;13.26;100.00;99505.09;6279324;22;20317;-90
2022/08/23 16:29:07;;;;;;;;;;;;;;;13.11;100.00;99500.66;6305955;22;20386;-89
2022/08/23 16:31:38;;;;;;;;;;;;;;;13.24;100.00;99497.19;6278849;22;21172;-89
2022/08/23 16:34:06;;;;;;;;;;;;;;;13.11;100.00;99503.31;6303475;22;19917;-89
2022/08/23 16:36:32;;;;;;;;;;;;;;;13.23;100.00;99491.97;6304728;22;19950;-89
2022/08/23 16:38:57;;;;;;;;;;;;;;;13.12;100.00;99500.56;6279177;22;19915;-89
2022/08/23 16:41:25;;;;;;;;;;;;;;;13.18;100.00;99502.00;6280461;22;19915;-88
2022/08/23 16:43:50;;;;;;;;;;;;;;;13.11;100.00;99505.97;6277859;22;19965;-87
2022/08/23 16:46:43;;;;;;;;;;;;;;;13.19;100.00;99501.06;6305981;22;19914;-88
2022/08/23 16:49:06;;;;;;;;;;;;;;;13.06;100.00;99500.91;6303407;22;20004;-88
2022/08/23 16:51:32;;;;;;;;;;;;;;;13.14;100.00;99501.31;6179069;22;19921;-90
2022/08/23 16:53:57;;;;;;;;;;;;;;;13.84;100.00;99503.44;6248876;22;19921;-96
2022/08/23 16:56:22;;;;;;;;;;;;;;;13.25;100.00;99503.38;6250098;22;19955;-88
2022/08/23 16:58:48;;;;;;;;;;;;;;;13.18;100.00;99504.66;6254059;22;20214;-93
2022/08/23 17:01:14;;;;;;;;;;;;;;;13.04;100.00;99503.66;6126222;23;19919;-95
2022/08/23 17:03:40;;;;;;;;;;;;;;;13.12;100.00;99503.22;6123431;23;20287;-93
2022/08/23 17:06:06;;;;;;;;;;;;;;;12.96;100.00;99499.75;6249594;22;19917;-94
2022/08/23 17:08:31;;;;;;;;;;;;;;;13.01;100.00;99497.66;6123476;23;20256;-91
2022/08/23 17:11:06;;;;;;;;;;;;;;;;;;;;;
2022/08/23 17:13:32;;;;;;;;;;;;;;;13.00;100.00;99498.59;6131667;23;19952;-92
2022/08/23 17:15:57;;;;;;;;;;;;;;;12.87;100.00;99501.09;6226384;23;19952;-90
2022/08/23 17:18:23;;;;;;;;;;;;;;;13.01;100.00;99503.00;6123517;23;19983;-91
2022/08/23 17:20:49;;;;;;;;;;;;;;;12.91;100.00;99500.00;6225389;23;19920;-90
2022/08/23 17:23:14;;;;;;;;;;;;;;;13.02;100.00;99502.91;6123176;23;19913;-94
2022/08/23 17:25:43;;;;;;;;;;;;;;;12.85;100.00;99500.34;6224830;23;20237;-95
2022/08/23 17:28:08;;;;;;;;;;;;;;;13.00;100.00;99509.25;6225931;23;19956;-94
2022/08/23 17:30:34;;;;;;;;;;;;;;;12.84;100.00;99502.16;6227881;23;19940;-92
2022/08/23 17:32:59;;;;;;;;;;;;;;;12.99;100.00;99508.41;6224897;23;19916;-86
2022/08/23 17:35:29;;;;;;;;;;;;;;;12.85;100.00;99508.31;6121553;23;19988;-88
2022/08/23 17:37:55;;;;;;;;;;;;;;;13.02;100.00;99510.00;6124345;23;19916;-90
2022/08/23 17:40:24;;;;;;;;;;;;;;;12.85;100.00;99503.84;6122874;23;19970;-95
2022/08/23 17:42:50;;;;;;;;;;;;;;;13.00;100.00;99519.88;6226270;23;19917;-90
2022/08/23 17:45:16;;;;;;;;;;;;;;;12.84;100.00;99515.44;6225543;23;19913;-95
2022/08/23 17:47:41;;;;;;;;;;;;;;;13.01;100.00;99518.94;6226695;23;19921;-92
2022/08/23 17:50:07;;;;;;;;;;;;;;;12.86;100.00;99515.34;6126807;22;19962;-87
2022/08/23 17:52:32;;;;;;;;;;;;;;;13.00;100.00;99519.88;6309295;22;19914;-88
2022/08/23 17:54:57;;;;;;;;;;;;;;;12.87;100.00;99525.03;6281633;22;19948;-85
2022/08/23 17:57:23;;;;;;;;;;;;;;;13.02;100.00;99528.63;6282033;22;19911;-88
2022/08/23 17:59:48;;;;;;;;;;;;;;;12.92;100.00;99536.25;6309645;22;20345;-93
2022/08/23 18:02:14;;;;;;;;;;;;;;;13.00;100.00;99535.84;6310429;22;19956;-94
2022/08/23 18:04:39;;;;;;;;;;;;;;;12.94;100.00;99541.50;6280494;22;19911;-85
2022/08/23 18:07:05;;;;;;;;;;;;;;;12.99;100.00;99542.13;6308959;22;19915;-84
2022/08/23 18:09:31;;;;;;;;;;;;;;;13.03;100.00;99535.66;6309622;22;20287;-95
2022/08/23 18:11:56;;;;;;;;;;;;;;;12.98;100.00;99538.59;6282678;22;19911;-90
2022/08/23 18:14:22;;;;;;;;;;;;;;;13.02;100.00;99539.25;6309459;22;19934;-92
2022/08/23 18:16:47;;;;;;;;;;;;;;;12.98;100.00;99545.72;6310421;22;20346;-85
2022/08/23 18:19:13;;;;;;;;;;;;;;;13.07;100.00;99542.53;6309925;22;19985;-95
2022/08/23 18:21:39;;;;;;;;;;;;;;;12.95;100.00;99551.19;6282649;22;20243;-90
2022/08/23 18:24:08;;;;;;;;;;;;;;;13.00;100.00;99549.13;6310766;22;19918;-92
2022/08/23 18:29:18;;;;;;;;;;;;;;;13.19;100.00;99551.59;6310119;22;19918;-93
2022/08/23 18:31:43;;;;;;;;;;;;;;;13.01;100.00;99558.84;6281978;22;19966;-93
2022/08/23 18:34:12;;;;;;;;;;;;;;;13.05;100.00;99555.91;6280168;22;19910;-90
2022/08/23 18:36:37;;;;;;;;;;;;;;;12.97;100.00;99562.59;6308678;22;19918;-89
2022/08/23 18:39:03;;;;;;;;;;;;;;;13.03;100.00;99564.91;6308231;22;19911;-87
2022/08/23 18:41:37;;;;;;;;;;;;;;;12.90;100.00;99562.09;6280704;22;19934;-88
2022/08/23 18:44:02;;;;;;;;;;;;;;;13.02;100.00;99568.50;6280539;22;19919;-93
2022/08/23 18:46:30;;;;;;;;;;;;;;;12.85;100.00;99565.00;6280409;22;19998;-90
2022/08/23 18:48:55;;;;;;;;;;;;;;;13.02;100.00;99573.84;6307536;22;19914;-90
2022/08/23 18:51:21;;;;;;;;;;;;;;;12.86;100.00;99572.06;6306888;22;20326;-93
2022/08/23 18:53:49;;;;;;;;;;;;;;;13.04;100.00;99577.28;6279966;22;20242;-92
2022/08/23 18:56:15;;;;;;;;;;;;;;;12.88;100.00;99579.94;6280642;22;19915;-86
2022/08/23 18:58:40;;;;;;;;;;;;;;;13.00;100.00;99576.59;6280731;22;19957;-93
2022/08/23 19:01:39;;;;;;;;;;;;;;;12.84;100.00;99589.91;6308143;22;19994;-88
2022/08/23 19:04:08;;;;;;;;;;;;;;;13.04;100.00;99588.78;6241714;22;20370;-95
2022/08/23 19:06:36;;;;;;;;;;;;;;;12.86;100.00;99593.31;6308111;22;19915;-95
2022/08/23 19:09:02;;;;;;;;;;;;;;;13.02;100.00;99598.66;6280959;22;20001;-91
2022/08/23 19:11:32;;;;;;;;;;;;;;;12.88;100.00;99604.72;6307019;22;19917;-88
2022/08/23 19:13:59;;;;;;;;;;;;;;;13.04;100.00;99599.41;6308271;22;20246;-96
2022/08/23 19:16:25;;;;;;;;;;;;;;;12.86;100.00;99609.28;6280749;22;19921;-93
2022/08/23 19:18:51;;;;;;;;;;;;;;;13.01;100.00;99604.06;6280396;22;19911;-91
2022/08/23 19:21:25;;;;;;;;;;;;;;;12.84;100.00;99611.16;6306394;22;19922;-90
2022/08/23 19:23:56;;;;;;;;;;;;;;;13.02;100.00;99616.38;6280438;22;19911;-93
2022/08/23 19:26:24;;;;;;;;;;;;;;;12.90;100.00;99616.13;6279981;22;19915;-90
2022/08/23 19:29:01;;;;;;;;;;;;;;;12.99;100.00;99620.09;6308475;22;19911;-93
2022/08/23 19:31:30;;;;;;;;;;;;;;;12.87;100.00;99616.28;6306935;22;20329;-92
2022/08/23 19:33:55;;;;;;;;;;;;;;;12.95;100.00;99610.56;6306345;22;19982;-87
2022/08/23 19:36:21;;;;;;;;;;;;;;;12.99;100.00;99614.78;6278258;22;19934;-91
2022/08/23 19:38:46;;;;;;;;;;;;;;;12.94;100.00;99621.28;6306833;22;19921;-86
2022/08/23 19:41:14;;;;;;;;;;;;;;;13.07;100.00;99622.34;6278411;22;19910;-91
2022/08/23 19:43:48;;;;;;;;;;;;;;;12.85;100.00;99623.50;6280723;22;19911;-90
2022/08/23 19:46:17;;;;;;;;;;;;;;;13.02;100.00;99627.91;6306903;22;19914;-88
2022/08/23 19:48:44;;;;;;;;;;;;;;;12.86;100.00;99634.97;6279685;22;20005;-87
2022/08/23 19:51:10;;;;;;;;;;;;;;;13.02;100.00;99633.22;6252351;22;19925;-89
2022/08/23 19:53:35;;;;;;;;;;;;;;;12.88;100.00;99633.13;6148959;23;19988;-91
2022/08/23 19:56:01;;;;;;;;;;;;;;;12.99;100.00;99628.06;6148907;23;19940;-89
2022/08/23 19:58:27;;;;;;;;;;;;;;;12.90;100.00;99632.06;6149623;23;19912;-91
2022/08/23 20:00:52;;;;;;;;;;;;;;;12.95;100.00;99629.16;6150001;23;19966;-95
2022/08/23 20:03:17;;;;;;;;;;;;;;;13.03;100.00;99632.25;6280783;22;20379;-89
2022/08/23 20:05:53;;;;;;;;;;;;;;;;;;;;;
2022/08/23 20:08:18;;;;;;;;;;;;;;;13.08;100.00;99639.97;6148335;23;20003;-88
2022/08/23 20:10:44;;;;;;;;;;;;;;;12.92;100.00;99639.13;6147670;23;19933;-89
2022/08/23 20:13:10;;;;;;;;;;;;;;;13.06;100.00;99636.56;6148584;23;19919;-87
2022/08/23 20:15:40;;;;;;;;;;;;;;;12.85;100.00;99647.44;6147583;23;19912;-92
2022/08/23 20:18:08;;;;;;;;;;;;;;;13.01;100.00;99651.91;6278010;22;19913;-94
2022/08/23 20:20:33;;;;;;;;;;;;;;;12.82;100.00;99652.06;6278012;22;19994;-86